Time;durP1;ratioP1;P1;durP2;ratioP2;P2;SDS_P1;SDS_P2;PMS_P1;PMS_P2;Temp;Humidity;BMP_temperature;BMP_pressure;BME280_temperature;BME280_humidity;BME280_pressure;Samples;Min_cycle;Max_cycle;Signal;HPM_P1;HPM_P2
2022/05/04 00:02:32;;;;;;;52.55;24.17;;;;;;;11.36;nan;100467.38;4941729;29;20102;-76
2022/05/04 00:05:16;;;;;;;59.67;24.50;;;;;;;11.35;nan;100465.72;4956308;29;20487;-76
2022/05/04 00:08:00;;;;;;;60.55;25.80;;;;;;;11.38;nan;100466.22;4941827;29;20046;-75
2022/05/04 00:10:44;;;;;;;63.28;27.38;;;;;;;11.41;nan;100467.78;4941726;28;20097;-76
2022/05/04 00:13:28;;;;;;;80.10;30.52;;;;;;;11.41;nan;100465.09;4941658;29;20125;-76
2022/05/04 00:16:12;;;;;;;92.68;34.65;;;;;;;11.39;nan;100459.91;4928229;29;20111;-76
2022/05/04 00:18:56;;;;;;;116.65;38.15;;;;;;;11.38;nan;100455.56;4955910;29;20466;-76
2022/05/04 00:21:40;;;;;;;70.10;29.55;;;;;;;11.36;nan;100454.88;4941653;29;20087;-76
2022/05/04 00:24:24;;;;;;;76.28;31.42;;;;;;;11.44;nan;100446.13;4956206;29;20414;-76
2022/05/04 00:27:08;;;;;;;96.10;32.65;;;;;;;11.47;nan;100433.34;4941410;29;20521;-76
2022/05/04 00:29:52;;;;;;;71.53;29.38;;;;;;;11.50;nan;100434.88;4941533;29;20041;-76
2022/05/04 00:32:36;;;;;;;67.30;28.77;;;;;;;11.43;nan;100439.09;4956294;29;20105;-76
2022/05/04 00:35:20;;;;;;;53.30;25.10;;;;;;;11.23;nan;100443.66;4941183;29;20050;-76
2022/05/04 00:38:04;;;;;;;62.03;25.35;;;;;;;11.03;nan;100450.03;4941354;29;20046;-76
2022/05/04 00:40:48;;;;;;;87.80;33.38;;;;;;;11.00;nan;100442.31;4927734;29;20517;-76
2022/05/04 00:43:32;;;;;;;73.38;31.50;;;;;;;10.98;nan;100441.59;4941439;29;20057;-76
2022/05/04 00:46:16;;;;;;;138.90;38.83;;;;;;;10.94;nan;100448.22;4927766;29;20463;-76
2022/05/04 00:49:00;;;;;;;52.05;25.35;;;;;;;10.92;nan;100438.66;4955772;29;20098;-76
2022/05/04 00:51:44;;;;;;;58.85;27.17;;;;;;;10.88;nan;100440.75;4941133;29;20443;-76
2022/05/04 00:54:29;;;;;;;51.05;25.33;;;;;;;10.69;nan;100442.63;4941769;29;20069;-76
2022/05/04 00:57:14;;;;;;;76.75;29.85;;;;;;;10.65;nan;100447.38;4941109;29;20094;-76
2022/05/04 00:59:58;;;;;;;53.03;25.40;;;;;;;10.53;nan;100443.19;4942057;29;20129;-76
2022/05/04 01:02:42;;;;;;;90.20;30.77;;;;;;;10.56;nan;100450.88;4941060;29;20097;-76
2022/05/04 01:05:26;;;;;;;;;;;;;;;10.54;nan;100444.84;4941730;29;20097;-76
2022/05/04 01:08:11;;;;;;;77.93;31.03;;;;;;;10.54;nan;100450.19;4954886;29;19961;-76
2022/05/04 01:10:55;;;;;;;67.72;27.52;;;;;;;10.43;nan;100452.97;4940731;29;20049;-76
2022/05/04 01:13:39;;;;;;;51.60;25.42;;;;;;;10.34;nan;100456.47;4941262;29;20407;-76
2022/05/04 01:16:23;;;;;;;75.13;30.10;;;;;;;10.33;nan;100451.31;4940977;29;20422;-77
2022/05/04 01:19:09;;;;;;;66.00;27.63;;;;;;;10.37;nan;100448.22;4927303;29;20046;-76
2022/05/04 01:21:52;;;;;;;74.50;29.10;;;;;;;10.31;nan;100448.78;4927496;29;20059;-76
2022/05/04 01:24:38;;;;;;;81.90;31.70;;;;;;;10.31;nan;100448.78;4944782;29;20475;-76
2022/05/04 01:27:22;;;;;;;81.95;32.15;;;;;;;10.28;nan;100458.84;4959250;29;20130;-76
2022/05/04 01:30:07;;;;;;;69.32;28.45;;;;;;;10.29;nan;100455.22;4931423;29;20050;-76
2022/05/04 01:32:51;;;;;;;72.53;28.63;;;;;;;10.33;nan;100454.78;4931296;29;20054;-76
2022/05/04 01:35:35;;;;;;;60.53;26.35;;;;;;;10.41;nan;100452.28;4931158;29;20160;-76
2022/05/04 01:38:19;;;;;;;70.68;28.90;;;;;;;10.43;nan;100447.66;4944306;29;20511;-76
2022/05/04 01:41:03;;;;;;;66.78;29.10;;;;;;;10.54;nan;100454.69;4944311;29;20054;-76
2022/05/04 01:43:47;;;;;;;75.93;30.98;;;;;;;10.50;nan;100447.94;4944565;29;20097;-76
2022/05/04 01:46:31;;;;;;;54.63;26.02;;;;;;;10.49;nan;100446.25;4931104;29;20058;-76
2022/05/04 01:49:15;;;;;;;57.72;28.83;;;;;;;10.44;nan;100445.84;4944370;29;20050;-76
2022/05/04 01:51:59;;;;;;;48.83;24.85;;;;;;;10.42;nan;100451.31;4958707;29;20054;-76
2022/05/04 01:54:43;;;;;;;69.80;27.90;;;;;;;10.30;nan;100447.09;4944282;29;20050;-76
2022/05/04 01:57:27;;;;;;;87.78;31.90;;;;;;;10.30;nan;100444.44;4993260;23;20058;-70
2022/05/04 02:00:12;;;;;;;52.47;26.23;;;;;;;10.28;nan;100437.53;4997545;28;20134;-70
2022/05/04 02:02:56;;;;;;;65.68;26.13;;;;;;;10.28;nan;100438.41;4982644;28;20509;-69
2022/05/04 02:05:41;;;;;;;254.60;45.97;;;;;;;10.17;nan;100439.47;4982675;28;20118;-70
2022/05/04 02:08:25;;;;;;;65.20;27.98;;;;;;;10.19;nan;100437.53;4963268;28;20134;-70
2022/05/04 02:11:09;;;;;;;54.67;26.33;;;;;;;10.23;nan;100445.13;4963277;28;20193;-70
2022/05/04 02:13:52;;;;;;;48.88;25.83;;;;;;;10.20;nan;100439.22;4977864;28;20117;-71
2022/05/04 02:16:36;;;;;;;54.05;26.45;;;;;;;10.14;nan;100440.59;4977493;28;20109;-70
2022/05/04 02:19:20;;;;;;;46.08;24.77;;;;;;;10.18;nan;100441.19;4962872;28;20069;-70
2022/05/04 02:22:04;;;;;;;72.93;28.55;;;;;;;10.22;nan;100434.59;4977703;28;20054;-71
2022/05/04 02:24:48;;;;;;;82.35;29.83;;;;;;;10.09;nan;100442.81;4977673;28;20426;-70
2022/05/04 02:27:32;;;;;;;82.05;31.15;;;;;;;10.11;nan;100440.03;4977483;28;20057;-70
2022/05/04 02:30:16;;;;;;;79.57;31.75;;;;;;;10.10;nan;100438.34;4949280;28;20430;-71
2022/05/04 02:33:00;;;;;;;99.30;34.60;;;;;;;10.13;nan;100427.41;4977256;28;20506;-70
2022/05/04 02:38:47;;;;;;;81.50;30.75;;;;;;;10.10;nan;100438.34;4965131;28;20530;-71
2022/05/04 02:41:31;;;;;;;101.65;34.65;;;;;;;10.14;nan;100443.28;4977310;28;20414;-70
2022/05/04 02:44:16;;;;;;;93.85;34.58;;;;;;;10.10;nan;100444.50;4977321;28;20462;-70
2022/05/04 02:46:59;;;;;;;113.53;39.05;;;;;;;10.01;nan;100441.81;4962505;28;20109;-70
2022/05/04 02:49:43;;;;;;;76.75;30.42;;;;;;;10.06;nan;100450.25;4977042;28;20113;-70
2022/05/04 02:52:27;;;;;;;74.72;30.30;;;;;;;10.05;nan;100445.91;4976916;28;20518;-70
2022/05/04 02:55:12;;;;;;;99.03;32.40;;;;;;;10.00;nan;100459.59;4962292;28;20104;-71
2022/05/04 02:57:56;;;;;;;92.25;33.88;;;;;;;9.99;nan;100460.56;4976695;28;20085;-70
2022/05/04 03:00:40;;;;;;;80.70;31.50;;;;;;;10.02;nan;100459.47;4977009;28;20579;-70
2022/05/04 03:03:24;;;;;;;131.60;37.83;;;;;;;10.10;nan;100454.34;4962311;28;20050;-71
2022/05/04 03:06:08;;;;;;;106.70;38.25;;;;;;;10.21;nan;100456.88;4976909;28;20102;-71
2022/05/04 03:08:52;;;;;;;102.35;34.03;;;;;;;10.18;nan;100459.84;4948794;28;20085;-70
2022/05/04 03:11:54;;;;;;;88.03;32.70;;;;;;;10.27;nan;100463.34;4961935;28;20522;-70
2022/05/04 03:14:38;;;;;;;62.83;29.15;;;;;;;10.29;nan;100455.22;4964563;28;20046;-70
2022/05/04 03:17:22;;;;;;;64.93;28.65;;;;;;;10.32;nan;100458.44;4962100;28;20115;-70
2022/05/04 03:20:07;;;;;;;87.93;35.92;;;;;;;10.31;nan;100459.44;4962102;28;20069;-71
2022/05/04 03:22:51;;;;;;;106.70;37.55;;;;;;;10.40;nan;100463.06;4976505;28;20053;-70
2022/05/04 03:25:35;;;;;;;112.50;37.53;;;;;;;10.40;nan;100463.94;4962190;28;20084;-70
2022/05/04 03:28:19;;;;;;;97.15;35.85;;;;;;;10.38;nan;100465.91;4961792;28;20105;-70
2022/05/04 03:31:03;;;;;;;101.45;35.78;;;;;;;10.38;nan;100473.91;4976451;28;20198;-71
2022/05/04 03:33:47;;;;;;;103.53;37.30;;;;;;;10.33;nan;100472.63;4976442;28;20049;-70
2022/05/04 03:36:31;;;;;;;77.80;31.67;;;;;;;10.38;nan;100468.56;4948339;28;20050;-70
2022/05/04 03:39:15;;;;;;;69.07;29.67;;;;;;;10.42;nan;100466.44;4961636;28;20054;-70
2022/05/04 03:41:59;;;;;;;78.57;30.55;;;;;;;10.47;nan;100465.03;4975987;28;20053;-71
2022/05/04 03:44:43;;;;;;;67.32;30.27;;;;;;;10.52;nan;100465.47;4948033;28;20082;-70
2022/05/04 03:47:27;;;;;;;87.53;35.30;;;;;;;10.54;nan;100466.19;4960951;28;20167;-70
2022/05/04 03:50:11;;;;;;;103.10;38.20;;;;;;;10.49;nan;100457.78;4976077;28;20054;-70
2022/05/04 03:52:55;;;;;;;115.85;39.22;;;;;;;10.50;nan;100462.13;4961652;28;20470;-70
2022/05/04 03:55:39;;;;;;;107.57;37.63;;;;;;;10.52;nan;100465.47;4975713;28;20053;-70
2022/05/04 03:58:23;;;;;;;88.50;37.90;;;;;;;10.50;nan;100462.13;4961182;28;20081;-70
2022/05/04 04:01:07;;;;;;;92.38;36.72;;;;;;;10.56;nan;100468.72;4975921;28;20110;-70
2022/05/04 04:03:52;;;;;;;73.70;32.33;;;;;;;10.58;nan;100467.59;4961228;28;20136;-70
2022/05/04 04:06:36;;;;;;;107.93;35.83;;;;;;;10.62;nan;100469.00;4960890;28;20133;-70
2022/05/04 04:09:20;;;;;;;101.72;37.60;;;;;;;10.59;nan;100469.28;4960965;28;20130;-70
2022/05/04 04:12:04;;;;;;;78.82;32.13;;;;;;;10.43;nan;100471.63;4975916;28;20108;-70
2022/05/04 04:14:48;;;;;;;72.78;31.33;;;;;;;10.44;nan;100475.97;4975407;28;20049;-70
2022/05/04 04:17:32;;;;;;;75.40;29.58;;;;;;;10.49;nan;100478.25;4960871;28;20134;-70
2022/05/04 04:23:18;;;;;;;55.28;27.10;;;;;;;10.50;nan;100486.09;4975364;28;20084;-70
2022/05/04 04:26:04;;;;;;;70.40;29.13;;;;;;;10.57;nan;100489.88;4975374;28;20120;-70
2022/05/04 04:28:48;;;;;;;66.75;29.05;;;;;;;10.49;nan;100489.75;4960476;28;20411;-70
2022/05/04 04:31:32;;;;;;;58.38;26.00;;;;;;;10.51;nan;100487.78;4960432;28;20562;-71
2022/05/04 04:34:16;;;;;;;64.30;27.27;;;;;;;10.60;nan;100497.63;4960387;28;20514;-70
2022/05/04 04:37:00;;;;;;;68.38;30.75;;;;;;;10.65;nan;100495.38;4960554;28;20142;-70
2022/05/04 04:39:44;;;;;;;49.80;25.75;;;;;;;10.62;nan;100501.00;4947102;28;20399;-70
2022/05/04 04:42:28;;;;;;;64.03;27.45;;;;;;;10.57;nan;100499.72;4960245;28;20073;-70
2022/05/04 04:45:12;;;;;;;57.10;27.35;;;;;;;10.50;nan;100501.25;4960250;28;20141;-70
2022/05/04 04:47:56;;;;;;;69.90;30.75;;;;;;;10.56;nan;100509.53;4960331;28;20049;-69
2022/05/04 04:50:40;;;;;;;59.17;27.20;;;;;;;10.59;nan;100509.28;4960395;28;20070;-70
2022/05/04 04:53:24;;;;;;;64.93;28.27;;;;;;;10.62;nan;100521.47;4946859;28;20049;-70
2022/05/04 04:56:08;;;;;;;71.25;28.50;;;;;;;10.69;nan;100510.13;4960318;28;20062;-70
2022/05/04 04:58:52;;;;;;;50.70;25.20;;;;;;;10.83;nan;100525.69;4974209;28;20041;-70
2022/05/04 05:01:36;;;;;;;;;;;;;;;10.78;nan;100522.63;4975360;28;20549;-70
2022/05/04 05:04:20;;;;;;;57.03;23.88;;;;;;;10.78;nan;100527.09;4960261;28;19937;-70
2022/05/04 05:07:04;;;;;;;64.90;28.63;;;;;;;10.95;nan;100524.56;4959919;28;20193;-70
2022/05/04 05:09:49;;;;;;;45.22;25.13;;;;;;;11.12;nan;100518.53;4960143;28;20114;-70
2022/05/04 05:12:33;;;;;;;50.40;24.70;;;;;;;11.07;nan;100522.63;4946596;28;20129;-70
2022/05/04 05:18:20;;;;;;;45.05;24.17;;;;;;;11.12;nan;100525.69;4974437;28;20050;-70
2022/05/04 05:21:05;;;;;;;64.07;29.17;;;;;;;11.26;nan;100528.78;4974732;28;20170;-70
2022/05/04 05:23:49;;;;;;;47.67;24.70;;;;;;;11.35;nan;100532.44;4959781;28;20229;-70
2022/05/04 05:26:33;;;;;;;36.30;22.70;;;;;;;11.07;nan;100531.44;4959666;28;20109;-70
2022/05/04 05:29:16;;;;;;;44.10;23.92;;;;;;;11.13;nan;100530.91;4959917;28;20097;-69
2022/05/04 05:32:00;;;;;;;51.42;26.65;;;;;;;11.29;nan;100539.16;4974293;28;20064;-70
2022/05/04 05:34:44;;;;;;;;;;;;;;;11.27;nan;100537.63;4975286;28;20127;-69
2022/05/04 05:37:28;;;;;;;45.05;25.15;;;;;;;11.11;nan;100537.34;4946128;28;19921;-70
2022/05/04 05:40:12;;;;;;;40.95;24.60;;;;;;;11.24;nan;100540.56;4946279;28;20041;-71
2022/05/04 05:42:56;;;;;;;50.83;26.70;;;;;;;11.21;nan;100543.53;4959917;28;20081;-71
2022/05/04 05:45:40;;;;;;;50.75;28.45;;;;;;;11.21;nan;100551.53;4946321;28;20513;-70
2022/05/04 05:48:24;;;;;;;46.97;27.55;;;;;;;11.33;nan;100553.06;4959487;28;20057;-70
2022/05/04 05:51:08;;;;;;;40.67;25.20;;;;;;;11.44;nan;100544.91;4959542;28;20049;-70
2022/05/04 05:53:52;;;;;;;52.72;27.65;;;;;;;11.63;nan;100548.41;4974399;28;20077;-70
2022/05/04 05:56:36;;;;;;;42.25;24.08;;;;;;;11.84;nan;100551.75;4973975;28;20557;-69
2022/05/04 05:59:20;;;;;;;30.25;22.05;;;;;;;11.87;nan;100545.28;4974089;28;20571;-70
2022/05/04 06:02:04;;;;;;;37.33;21.73;;;;;;;11.89;nan;100541.44;4959430;28;20097;-70
2022/05/04 06:04:48;;;;;;;35.67;22.98;;;;;;;11.96;nan;100539.88;4974297;28;20411;-70
2022/05/04 06:07:32;;;;;;;33.22;22.70;;;;;;;12.35;nan;100533.38;4945843;28;20053;-70
2022/05/04 06:10:16;;;;;;;33.55;21.33;;;;;;;12.50;nan;100533.72;4962724;28;20244;-70
2022/05/04 06:13:00;;;;;;;29.42;21.25;;;;;;;12.49;nan;100534.72;4963241;28;20049;-70
2022/05/04 06:15:44;;;;;;;28.60;19.70;;;;;;;12.78;nan;100538.88;4977585;28;20070;-70
2022/05/04 06:18:28;;;;;;;25.38;18.35;;;;;;;12.85;nan;100539.94;4963131;28;20105;-71
2022/05/04 06:21:12;;;;;;;22.40;17.65;;;;;;;12.98;nan;100541.28;4977758;28;20117;-70
2022/05/04 06:24:00;;;;;;;23.45;17.75;;;;;;;13.11;nan;100538.22;4962997;28;20522;-70
2022/05/04 06:26:44;;;;;;;23.88;17.27;;;;;;;13.32;nan;100536.03;4962853;28;20085;-71
2022/05/04 06:35:33;;;;;;;21.83;17.52;;;;;;;13.67;nan;100514.56;4977500;28;20185;-71
2022/05/04 06:38:17;;;;;;;22.40;15.52;;;;;;;13.66;nan;100504.84;4977456;28;20066;-70
2022/05/04 06:41:05;;;;;;;21.08;17.65;;;;;;;13.86;nan;100496.41;4962504;28;20049;-70
2022/05/04 06:43:49;;;;;;;21.67;16.75;;;;;;;14.16;nan;100487.84;4963185;28;20056;-70
2022/05/04 06:46:33;;;;;;;20.13;16.33;;;;;;;14.38;nan;100486.44;4962561;28;20054;-70
2022/05/04 06:49:17;;;;;;;19.33;14.93;;;;;;;14.67;nan;100487.69;4977101;28;20113;-71
2022/05/04 06:52:01;;;;;;;18.80;15.85;;;;;;;14.83;nan;100481.50;4976946;28;20181;-71
2022/05/04 06:54:45;;;;;;;17.90;14.25;;;;;;;14.83;nan;100486.88;4977194;28;20046;-71
2022/05/04 06:57:29;;;;;;;18.52;14.25;;;;;;;14.83;nan;100486.88;4976935;28;20410;-70
2022/05/04 07:00:14;;;;;;;19.50;13.63;;;;;;;14.83;nan;100493.09;4962452;28;20045;-70
2022/05/04 07:02:58;;;;;;;21.30;13.18;;;;;;;14.81;nan;100496.94;4962092;28;20418;-70
2022/05/04 07:05:42;;;;;;;16.13;13.02;;;;;;;15.02;nan;100497.28;4976610;28;20105;-71
2022/05/04 07:08:26;;;;;;;;;;;;;;;15.02;nan;100492.75;4962609;28;20058;-71
2022/05/04 07:11:10;;;;;;;20.67;13.43;;;;;;;15.11;nan;100485.56;4976858;28;20377;-71
2022/05/04 07:13:54;;;;;;;19.77;12.63;;;;;;;15.20;nan;100481.88;4976534;28;20808;-70
2022/05/04 07:16:38;;;;;;;20.02;12.95;;;;;;;15.21;nan;100491.59;4961771;28;20126;-71
2022/05/04 07:19:21;;;;;;;16.77;12.75;;;;;;;15.44;nan;100497.97;4976971;28;20193;-69
2022/05/04 07:22:05;;;;;;;17.48;13.02;;;;;;;15.53;nan;100491.59;4961497;28;20049;-71
2022/05/04 07:24:50;;;;;;;;;;;;;;;15.62;nan;100498.66;4962379;28;20104;-71
2022/05/04 07:27:34;;;;;;;13.82;12.18;;;;;;;15.69;nan;100498.63;4961718;28;19967;-71
2022/05/04 07:30:18;;;;;;;;;;;;;;;15.66;nan;100492.75;4976661;28;20046;-71
2022/05/04 07:33:02;;;;;;;16.07;13.20;;;;;;;15.75;nan;100500.63;4976371;28;19936;-70
2022/05/04 07:35:46;;;;;;;16.92;13.27;;;;;;;15.80;nan;100486.66;4976119;28;20260;-71
2022/05/04 07:38:30;;;;;;;16.70;13.25;;;;;;;15.95;nan;100491.16;4961467;28;20559;-71
2022/05/04 07:44:17;;;;;;;16.67;13.27;;;;;;;15.68;nan;100494.25;4963881;28;20305;-70
2022/05/04 07:47:01;;;;;;;14.88;13.20;;;;;;;15.97;nan;100493.69;4961218;28;20137;-70
2022/05/04 07:49:45;;;;;;;16.70;13.05;;;;;;;15.97;nan;100489.13;4974888;28;20577;-71
2022/05/04 07:52:29;;;;;;;16.33;13.57;;;;;;;15.98;nan;100489.97;4961206;28;20124;-71
2022/05/04 07:55:14;;;;;;;15.77;13.48;;;;;;;16.42;nan;100486.63;4975965;28;20478;-71
2022/05/04 07:57:58;;;;;;;15.85;12.77;;;;;;;16.84;nan;100496.94;5006206;23;20060;-73
2022/05/04 08:06:48;;;;;;;14.95;12.25;;;;;;;17.78;nan;100498.19;4994146;28;20055;-73
2022/05/04 08:09:36;;;;;;;14.15;12.20;;;;;;;17.98;nan;100500.16;4993909;28;20054;-73
2022/05/04 08:12:20;;;;;;;17.38;12.05;;;;;;;18.25;nan;100499.50;4993909;28;20196;-73
2022/05/04 08:15:04;;;;;;;14.77;11.93;;;;;;;18.00;nan;100498.09;4993847;28;20045;-73
2022/05/04 08:17:48;;;;;;;18.73;11.70;;;;;;;18.32;nan;100503.13;4994893;28;20053;-73
2022/05/04 08:20:32;;;;;;;16.65;12.23;;;;;;;17.62;nan;100504.56;4994104;28;20494;-73
2022/05/04 08:23:16;;;;;;;20.25;12.75;;;;;;;17.73;nan;100509.50;4993964;28;20128;-73
2022/05/04 08:26:01;;;;;;;;;;;;;;;18.07;nan;100509.00;4994776;28;20553;-73
2022/05/04 08:28:44;;;;;;;18.42;12.52;;;;;;;18.59;nan;100513.25;4994871;28;20361;-72
2022/05/04 08:31:29;;;;;;;;;;;;;;;18.92;nan;100519.88;4994934;28;20122;-73
2022/05/04 08:34:14;;;;;;;13.35;10.98;;;;;;;19.06;nan;100518.97;4994045;28;19960;-73
2022/05/04 08:36:58;;;;;;;15.07;11.73;;;;;;;18.61;nan;100519.28;4979950;28;20100;-73
2022/05/04 08:39:41;;;;;;;14.68;11.80;;;;;;;18.77;nan;100508.28;4993444;28;20057;-73
2022/05/04 08:42:27;;;;;;;;;;;;;;;18.76;nan;100512.84;4993812;28;20184;-72
2022/05/04 08:45:11;;;;;;;;;;;;;;;18.96;nan;100513.88;4980395;28;19977;-73
2022/05/04 08:47:56;;;;;;;15.65;12.23;;;;;;;19.10;nan;100514.88;4993447;28;19921;-72
2022/05/04 08:50:40;;;;;;;14.25;11.32;;;;;;;18.83;nan;100507.50;4993488;28;20053;-72
2022/05/04 08:53:26;;;;;;;15.55;12.68;;;;;;;18.67;nan;100513.97;4993265;28;20132;-72
2022/05/04 08:56:12;;;;;;;18.08;13.30;;;;;;;18.53;nan;100511.28;4993437;28;20132;-73
2022/05/04 08:58:55;;;;;;;18.08;13.18;;;;;;;18.53;nan;100512.16;4993323;28;20045;-72
2022/05/04 09:01:40;;;;;;;16.48;12.50;;;;;;;18.46;nan;100513.09;4994210;28;20049;-73
2022/05/04 09:04:24;;;;;;;19.15;13.40;;;;;;;18.47;nan;100515.59;4993305;28;20477;-73
2022/05/04 09:07:22;;;;;;;14.30;11.85;;;;;;;18.61;nan;100508.50;4992975;28;20100;-72
2022/05/04 09:10:06;;;;;;;16.15;13.20;;;;;;;18.27;nan;100502.84;4993899;28;20185;-72
2022/05/04 09:12:52;;;;;;;17.15;13.77;;;;;;;18.15;nan;100508.91;4992981;28;20056;-73
2022/05/04 09:15:38;;;;;;;18.65;13.40;;;;;;;18.39;nan;100504.06;4993013;28;20104;-73
2022/05/04 09:18:22;;;;;;;17.70;14.68;;;;;;;18.48;nan;100509.16;4979293;28;20104;-73
2022/05/04 09:21:06;;;;;;;17.77;12.68;;;;;;;18.71;nan;100503.63;4994079;28;20076;-73
2022/05/04 09:23:52;;;;;;;;;;;;;;;18.74;nan;100514.03;4979798;28;20126;-73
2022/05/04 09:26:40;;;;;;;16.05;13.77;;;;;;;18.89;nan;100506.75;4994091;28;20412;-73
2022/05/04 09:29:35;;;;;;;15.98;12.38;;;;;;;19.11;nan;100511.13;4978995;28;20099;-73
2022/05/04 09:32:21;;;;;;;16.17;14.27;;;;;;;19.03;nan;100508.53;4993759;28;20104;-73
2022/05/04 09:35:11;;;;;;;17.48;13.25;;;;;;;19.49;nan;100507.16;4979492;28;20493;-73
2022/05/04 09:47:18;;;;;;;18.25;13.73;;;;;;;19.88;nan;100493.91;4997500;28;20056;-73
2022/05/04 09:50:03;;;;;;;17.10;13.30;;;;;;;20.09;nan;100491.16;4997446;28;20493;-72
2022/05/04 09:52:50;;;;;;;14.88;13.23;;;;;;;20.76;nan;100494.78;4982813;28;20053;-72
2022/05/04 09:55:35;;;;;;;14.07;12.35;;;;;;;20.87;nan;100499.63;4996684;28;20090;-73
2022/05/04 09:58:20;;;;;;;17.13;14.20;;;;;;;21.06;nan;100496.97;4982460;28;20049;-72
2022/05/04 10:01:05;;;;;;;15.35;13.75;;;;;;;21.71;nan;100487.00;4982887;28;20133;-72
2022/05/04 10:03:50;;;;;;;18.25;12.70;;;;;;;22.26;nan;100482.91;4982603;28;20130;-72
2022/05/04 10:06:35;;;;;;;17.73;12.00;;;;;;;23.93;nan;100482.06;4983157;28;20053;-72
2022/05/04 10:09:20;;;;;;;16.27;11.68;;;;;;;25.04;nan;100481.53;4982311;28;20422;-73
2022/05/04 10:12:05;;;;;;;14.77;11.77;;;;;;;25.96;nan;100481.72;4996432;28;20105;-73
2022/05/04 10:14:51;;;;;;;14.52;10.70;;;;;;;26.06;nan;100465.56;4996361;28;20088;-72
2022/05/04 10:17:37;;;;;;;22.25;11.48;;;;;;;28.64;nan;100467.69;4996279;28;20046;-73
2022/05/04 10:20:23;;;;;;;11.30;10.10;;;;;;;27.54;nan;100463.31;4982442;28;20057;-72
2022/05/04 10:23:21;;;;;;;9.32;7.43;;;;;;;29.40;nan;100470.97;4996142;28;20085;-73
2022/05/04 10:26:06;;;;;;;12.77;8.95;;;;;;;29.74;nan;100458.63;4996167;28;20085;-72
2022/05/04 10:31:56;;;;;;;12.77;7.45;;;;;;;30.32;nan;100451.03;4996262;28;20118;-73
2022/05/04 10:34:42;;;;;;;9.43;8.52;;;;;;;30.85;nan;100449.88;4982712;28;20073;-73
2022/05/04 10:37:26;;;;;;;9.40;7.95;;;;;;;31.79;nan;100446.41;4982262;28;20057;-73
2022/05/04 10:40:11;;;;;;;10.18;8.30;;;;;;;32.61;nan;100438.44;4995756;28;20049;-73
2022/05/04 10:42:56;;;;;;;10.63;9.05;;;;;;;33.84;nan;100443.34;4995783;28;20054;-73
2022/05/04 10:45:43;;;;;;;9.93;8.98;;;;;;;32.11;nan;100441.38;4995864;28;20049;-73
2022/05/04 10:48:28;;;;;;;10.27;9.27;;;;;;;33.97;nan;100436.31;4981551;28;20109;-72
2022/05/04 10:51:28;;;;;;;12.60;9.27;;;;;;;32.98;nan;100424.16;4995831;28;20065;-73
2022/05/04 10:54:19;;;;;;;9.10;8.20;;;;;;;33.98;nan;100433.25;4995373;28;20049;-73
2022/05/04 10:57:03;;;;;;;11.43;10.10;;;;;;;32.37;nan;100425.59;4994399;28;20081;-73
2022/05/04 11:00:02;;;;;;;10.65;9.55;;;;;;;34.15;nan;100422.53;4995594;28;20402;-71
2022/05/04 11:02:48;;;;;;;9.85;8.95;;;;;;;33.38;nan;100417.25;4995408;28;20052;-71
2022/05/04 11:05:47;;;;;;;10.18;9.27;;;;;;;34.34;nan;100406.00;4995473;28;20097;-71
2022/05/04 11:08:36;;;;;;;10.52;8.90;;;;;;;34.63;nan;100407.56;4995021;28;20073;-71
2022/05/04 11:11:22;;;;;;;11.40;10.25;;;;;;;34.87;nan;100402.00;4995289;28;20049;-71
2022/05/04 11:14:08;;;;;;;14.88;9.55;;;;;;;35.32;nan;100399.34;4981978;28;20117;-71
2022/05/04 11:16:56;;;;;;;9.80;8.88;;;;;;;35.60;nan;100394.69;4994868;28;20422;-71
2022/05/04 11:19:45;;;;;;;10.15;8.82;;;;;;;36.34;nan;100392.44;4996010;28;20181;-71
2022/05/04 11:22:29;;;;;;;10.80;9.32;;;;;;;34.71;nan;100393.09;4995968;28;20054;-70
2022/05/04 11:25:13;;;;;;;10.93;8.40;;;;;;;34.41;nan;100396.25;4994742;28;20137;-71
2022/05/04 11:27:57;;;;;;;8.32;7.57;;;;;;;35.13;nan;100392.13;4981051;28;20564;-72
2022/05/04 11:30:41;;;;;;;11.13;10.02;;;;;;;34.18;nan;100383.19;4981227;28;20058;-72
2022/05/04 11:33:25;;;;;;;10.13;9.10;;;;;;;35.20;nan;100382.34;4994596;28;20045;-71
2022/05/04 11:36:10;;;;;;;9.88;8.88;;;;;;;34.96;nan;100381.59;4995092;28;20502;-72
2022/05/04 11:38:54;;;;;;;10.52;9.55;;;;;;;35.28;nan;100381.66;4994384;28;20057;-72
2022/05/04 11:41:38;;;;;;;9.43;8.18;;;;;;;36.16;nan;100385.03;4994777;28;20053;-72
2022/05/04 11:44:23;;;;;;;10.18;8.90;;;;;;;36.69;nan;100378.56;4995602;28;20200;-72
2022/05/04 11:47:08;;;;;;;11.07;9.93;;;;;;;37.19;nan;100376.59;4994606;28;20112;-72
2022/05/04 11:49:53;;;;;;;8.90;8.00;;;;;;;37.15;nan;100378.34;4994440;28;20114;-72
2022/05/04 11:52:40;;;;;;;9.68;8.02;;;;;;;35.18;nan;100370.75;4994289;28;20057;-72
2022/05/04 11:55:24;;;;;;;7.00;5.28;;;;;;;36.63;nan;100365.13;4994551;28;20568;-72
2022/05/04 11:58:14;;;;;;;7.68;5.13;;;;;;;36.28;nan;100357.56;4995092;28;20520;-72
2022/05/04 12:00:59;;;;;;;6.03;5.35;;;;;;;36.29;nan;100359.19;4994217;28;20049;-73
2022/05/04 12:03:43;;;;;;;6.03;5.43;;;;;;;35.77;nan;100368.03;4994624;28;20573;-72
2022/05/04 12:06:27;;;;;;;6.78;6.18;;;;;;;35.70;nan;100356.50;4994442;28;20173;-73
2022/05/04 12:09:12;;;;;;;7.97;7.20;;;;;;;35.55;nan;100358.72;4993856;28;20193;-73
2022/05/04 12:11:56;;;;;;;7.82;6.63;;;;;;;36.22;nan;100358.78;4993914;28;20080;-73
2022/05/04 12:14:40;;;;;;;8.15;7.05;;;;;;;38.16;nan;100352.22;4993939;28;20136;-73
2022/05/04 12:17:25;;;;;;;7.10;6.40;;;;;;;38.08;nan;100359.41;4994849;28;20520;-73
2022/05/04 12:20:10;;;;;;;7.88;6.30;;;;;;;39.11;nan;100360.41;4994010;28;20057;-73
2022/05/04 12:22:55;;;;;;;9.07;7.40;;;;;;;35.95;nan;100357.97;4995032;28;20101;-73
2022/05/04 12:25:41;;;;;;;7.05;6.35;;;;;;;37.19;nan;100357.13;4994941;28;20057;-73
2022/05/04 12:28:25;;;;;;;7.28;6.68;;;;;;;36.43;nan;100344.16;4979899;28;20533;-73
2022/05/04 12:34:13;;;;;;;7.20;6.60;;;;;;;35.99;nan;100334.84;4994544;28;20049;-73
2022/05/04 12:36:59;;;;;;;12.30;7.65;;;;;;;35.52;nan;100343.53;4994958;28;20402;-73
2022/05/04 12:39:44;;;;;;;9.25;6.65;;;;;;;37.59;nan;100331.03;4979834;28;20461;-73
2022/05/04 12:42:28;;;;;;;9.57;8.00;;;;;;;35.77;nan;100328.34;4993693;28;20509;-73
2022/05/04 12:45:18;;;;;;;7.60;6.90;;;;;;;35.95;nan;100322.72;4994413;28;20425;-73
2022/05/04 12:48:07;;;;;;;8.45;7.65;;;;;;;35.32;nan;100309.78;4979946;28;20130;-74
2022/05/04 12:50:57;;;;;;;7.80;7.10;;;;;;;35.83;nan;100322.44;4979799;28;20192;-73
2022/05/04 12:53:41;;;;;;;10.10;7.40;;;;;;;35.80;nan;100320.25;4994215;28;20107;-74
2022/05/04 12:59:28;;;;;;;9.88;8.93;;;;;;;34.60;nan;100319.56;4993245;28;20137;-73
2022/05/04 13:02:12;;;;;;;9.85;8.80;;;;;;;31.88;nan;100303.28;4994401;28;20048;-73
2022/05/04 13:04:56;;;;;;;11.43;7.78;;;;;;;32.89;nan;100307.13;4994574;28;20052;-73
2022/05/04 13:07:43;;;;;;;11.07;8.43;;;;;;;34.13;nan;100297.50;4994050;28;20057;-73
2022/05/04 13:10:30;;;;;;;10.95;8.60;;;;;;;29.08;nan;100305.41;4993250;28;20470;-74
2022/05/04 13:13:16;;;;;;;8.75;7.90;;;;;;;29.35;nan;100299.84;4992949;28;20056;-73
2022/05/04 13:16:00;;;;;;;9.23;8.05;;;;;;;28.20;nan;100306.97;4993306;28;20541;-73
2022/05/04 13:18:44;;;;;;;8.93;7.75;;;;;;;27.46;nan;100300.28;4992631;28;20072;-73
2022/05/04 13:21:30;;;;;;;10.55;9.00;;;;;;;25.77;nan;100303.47;4992900;28;20044;-73
2022/05/04 13:24:14;;;;;;;9.35;8.23;;;;;;;25.13;nan;100305.53;4993152;28;20050;-73
2022/05/04 13:26:58;;;;;;;10.63;9.50;;;;;;;22.84;nan;100305.16;4979487;28;20053;-73
2022/05/04 13:29:42;;;;;;;13.63;10.30;;;;;;;22.28;nan;100315.97;4993036;28;20105;-73
2022/05/04 13:32:25;;;;;;;17.25;11.98;;;;;;;20.63;nan;100324.09;4994015;28;20501;-76
2022/05/04 13:35:09;;;;;;;22.10;12.65;;;;;;;19.65;nan;100328.34;4993581;28;20085;-77
2022/05/04 13:37:53;;;;;;;20.95;15.32;;;;;;;18.67;nan;100330.34;4993017;28;20057;-76